Tonganoxie, KS

11:28 AM CDT on May 26, 2015 (GMT -0500)
Lawrence Municipal | | Change Station
CLOSE
Current Station
Airport
Location: Lawrence,
Elevation: 830 ft
Nearby Weather Stations

Elev 830 ft 39.01 °N, 95.21 °W | Updated 13 minutes ago

Mostly Cloudy
Mostly Cloudy
71 °F
Feels Like 71 °F
N
18
Wind Variable Wind from SW
Gusts 25 mph

Today
High -- | Low -- °F
--% Chance of Precip.
Yesterday
High -- | Low -- °F
Precip. -- in
5:59 AM 8:35 PM
First Quarter, 59% visible
Pressure 29.86 in
Visibility 10.0 miles
Clouds Scattered Clouds 2700 ft
Dew Point 60 °F
Humidity 68%
Rainfall 0.46 in
Snow Depth Not available.
UV 8 out of 12
Pollen 7.90 out of 12
Air Quality Not available.
Flu Activity No Activity
SPECI KLWC 261615Z AUTO 23016G22KT 10SM SCT027 22/16 A2986 RMK AO2 T02170156

More Conditions Fewer Conditions

Pressure 29.86 in
Visibility 10.0 miles
Clouds Scattered Clouds 2700 ft
Dew Point 60 °F
Humidity 68%
Rainfall 0.46 in
Snow Depth Not available.
UV 8 out of 12
Pollen 7.90 out of 12
Air Quality Not available.
Flu Activity No Activity
SPECI KLWC 261615Z AUTO 23016G22KT 10SM SCT027 22/16 A2986 RMK AO2 T02170156

More Conditions Fewer Conditions

10-Day Weather Forecast

Almanac

Astronomy

May. 26, 2015 Rise Set
Actual Time
Civil Twilight
Nautical Twilight
Astronomical Twilight
Moon
Length of Visible Light
Length of Day
Tomorrow will be .
, % of the Moon is Illuminated

Today's Extremes

State Highs State Lows

Community

WunderPhotos

Upload Photos

1,824,376 photos uploaded!

WunderBlogs® & News

Nearby

Air Quality

  Air Quality AQ Index Pollutant
Not available.

Snow Depth

Station Depth Elevation

Earthquake Activity

City Distance Mag. Time & Date
Minimum magnitude displayed is 2.5.

Coastal Water Temperatures

Place Temperature

Stations

Nearby Weather Stations

Station Location Temp. Windchill Dew Point Humidity Wind Precip. Elev Updated Type